createdAt,value
2023-02-12T00:00:03.848Z,12.00
2023-02-12T00:01:01.850Z,11.20
2023-02-12T00:02:01.872Z,15.40
2023-02-12T00:03:01.812Z,8.00
2023-02-12T00:04:01.811Z,7.70
2023-02-12T00:05:01.821Z,6.40
2023-02-12T00:06:01.789Z,7.40
2023-02-12T00:07:01.779Z,6.90
2023-02-12T00:08:01.793Z,5.80
2023-02-12T00:09:01.771Z,6.80
2023-02-12T00:10:01.749Z,7.70
2023-02-12T00:11:01.742Z,6.30
2023-02-12T00:12:01.728Z,5.80
2023-02-12T00:13:01.703Z,6.70
2023-02-12T00:14:01.702Z,6.70
2023-02-12T00:15:01.686Z,6.70
2023-02-12T00:16:01.763Z,6.80
2023-02-12T00:17:01.661Z,11.30
2023-02-12T00:18:01.655Z,12.60
2023-02-12T00:19:01.655Z,12.50
2023-02-12T00:20:01.635Z,9.90
2023-02-12T00:21:01.610Z,9.40
2023-02-12T00:22:01.604Z,12.10
2023-02-12T00:23:01.614Z,12.50
2023-02-12T00:24:01.590Z,10.90
2023-02-12T00:25:01.566Z,10.60
2023-02-12T00:26:01.548Z,13.20
2023-02-12T00:27:01.585Z,12.90
2023-02-12T00:28:01.624Z,39.60
2023-02-12T00:29:01.542Z,24.50
2023-02-12T00:30:01.535Z,22.90
2023-02-12T00:31:01.663Z,32.90
2023-02-12T00:32:01.633Z,23.00
2023-02-12T00:33:01.483Z,20.10
2023-02-12T00:34:01.471Z,17.50
2023-02-12T00:35:01.481Z,7.90
2023-02-12T00:36:01.450Z,15.40
2023-02-12T00:37:01.452Z,10.60
2023-02-12T00:38:01.421Z,10.00
2023-02-12T00:39:01.419Z,7.80
2023-02-12T00:40:01.394Z,6.20
2023-02-12T00:41:01.412Z,11.00
2023-02-12T00:42:01.406Z,8.30
2023-02-12T00:43:01.384Z,9.20
2023-02-12T00:44:01.358Z,9.20
2023-02-12T00:45:01.348Z,12.00
2023-02-12T00:46:01.430Z,43.00
2023-02-12T00:47:01.323Z,25.70
2023-02-12T00:48:01.319Z,23.20
2023-02-12T00:49:01.307Z,34.70
2023-02-12T00:50:01.283Z,52.50
2023-02-12T00:51:01.281Z,31.90
2023-02-12T00:52:01.284Z,28.90
2023-02-12T00:53:01.258Z,37.90
2023-02-12T00:54:01.264Z,58.10
2023-02-12T00:55:01.237Z,52.60
2023-02-12T00:56:01.221Z,78.80
2023-02-12T00:57:01.215Z,96.00
2023-02-12T00:58:01.215Z,76.60
2023-02-12T00:59:01.209Z,68.20
2023-02-12T01:00:01.191Z,60.40
2023-02-12T01:01:01.188Z,51.60
2023-02-12T01:02:01.174Z,132.60
2023-02-12T01:03:01.145Z,65.60
2023-02-12T01:04:01.127Z,83.40
2023-02-12T01:05:01.158Z,96.50
2023-02-12T01:06:01.125Z,67.30
2023-02-12T01:07:01.123Z,83.90
2023-02-12T01:08:01.095Z,76.10
2023-02-12T01:09:01.082Z,99.80
2023-02-12T01:10:01.061Z,62.40
2023-02-12T01:11:01.064Z,80.60
2023-02-12T01:12:01.075Z,70.20
2023-02-12T01:13:01.056Z,74.50
2023-02-12T01:14:01.034Z,61.40
2023-02-12T01:15:01.032Z,27.40
2023-02-12T01:16:01.021Z,43.60
2023-02-12T01:17:01.009Z,39.30
2023-02-12T01:18:01.007Z,35.10
2023-02-12T01:19:00.975Z,28.70
2023-02-12T01:20:00.960Z,22.00
2023-02-12T01:21:00.946Z,15.80
2023-02-12T01:22:00.935Z,14.20
2023-02-12T01:23:00.942Z,22.10
2023-02-12T01:24:00.921Z,27.30
2023-02-12T01:25:00.900Z,20.10
2023-02-12T01:26:00.898Z,17.30
2023-02-12T01:27:00.879Z,16.20
2023-02-12T01:28:00.965Z,13.80
2023-02-12T01:29:00.861Z,13.50
2023-02-12T01:30:00.856Z,13.40
2023-02-12T01:31:01.043Z,14.50
2023-02-12T01:32:00.934Z,20.80
2023-02-12T01:33:00.811Z,19.00
2023-02-12T01:34:00.809Z,17.20
2023-02-12T01:35:00.792Z,30.80
2023-02-12T01:36:00.790Z,40.40
2023-02-12T01:37:00.792Z,40.30
2023-02-12T01:38:00.768Z,64.60
2023-02-12T01:39:00.747Z,68.30
2023-02-12T01:40:00.734Z,57.80
2023-02-12T01:41:00.723Z,50.00
2023-02-12T01:42:00.737Z,18.20
2023-02-12T01:43:00.699Z,23.60
2023-02-12T01:44:00.700Z,13.80
2023-02-12T01:45:00.694Z,15.60
2023-02-12T01:46:03.341Z,13.70
2023-02-12T01:47:00.692Z,14.80
2023-02-12T01:48:00.660Z,13.70
2023-02-12T01:49:00.634Z,13.20
2023-02-12T01:50:00.615Z,12.80
2023-02-12T01:51:00.641Z,12.40
2023-02-12T01:52:00.650Z,14.50
2023-02-12T01:53:00.598Z,14.40
2023-02-12T01:54:00.586Z,17.10
2023-02-12T01:55:00.576Z,16.10
2023-02-12T01:56:00.568Z,16.50
2023-02-12T01:57:00.564Z,17.70
2023-02-12T01:58:00.525Z,15.90
2023-02-12T01:59:00.519Z,24.20
2023-02-12T02:00:00.526Z,29.50
2023-02-12T02:01:00.524Z,28.10
2023-02-12T02:02:00.574Z,32.70
2023-02-12T02:03:00.520Z,52.70
2023-02-12T02:04:00.489Z,20.10
2023-02-12T02:05:00.463Z,22.80
2023-02-12T02:06:00.454Z,18.60
2023-02-12T02:07:00.429Z,15.60
2023-02-12T02:08:00.436Z,11.10
2023-02-12T02:09:00.408Z,10.60
2023-02-12T02:10:00.422Z,10.70
2023-02-12T02:11:00.393Z,10.30
2023-02-12T02:12:00.400Z,10.00
2023-02-12T02:13:00.361Z,7.80
2023-02-12T02:14:00.346Z,8.50
2023-02-12T02:15:00.362Z,8.10
2023-02-12T02:16:00.423Z,8.30
2023-02-12T02:17:00.315Z,7.30
2023-02-12T02:18:00.317Z,8.30
2023-02-12T02:19:00.333Z,7.20
2023-02-12T02:20:00.277Z,7.80
2023-02-12T02:21:00.270Z,9.50
2023-02-12T02:22:00.252Z,10.80
2023-02-12T02:23:00.246Z,9.30
2023-02-12T02:24:00.265Z,14.10
2023-02-12T02:25:00.225Z,14.80
2023-02-12T02:26:00.237Z,15.40
2023-02-12T02:27:00.201Z,27.40
2023-02-12T02:28:00.228Z,20.00
2023-02-12T02:29:00.183Z,23.70
2023-02-12T02:30:00.196Z,28.30
2023-02-12T02:31:00.316Z,46.60
2023-02-12T02:32:00.256Z,39.70
2023-02-12T02:33:00.132Z,33.10
2023-02-12T02:34:00.162Z,43.60
2023-02-12T02:35:00.154Z,55.30
2023-02-12T02:36:00.143Z,41.70
2023-02-12T02:37:01.369Z,53.40
2023-02-12T02:38:00.123Z,47.80
2023-02-12T02:39:00.080Z,39.60
2023-02-12T02:40:00.085Z,47.70
2023-02-12T02:41:00.050Z,50.50
2023-02-12T02:42:00.079Z,69.40
2023-02-12T02:43:00.014Z,71.80
2023-02-12T02:44:00.013Z,67.90
2023-02-12T02:45:00.017Z,84.20
2023-02-12T02:45:59.984Z,82.30
2023-02-12T02:47:00.012Z,66.50
2023-02-12T02:48:00.018Z,39.20
2023-02-12T02:48:59.945Z,73.70
2023-02-12T02:49:59.944Z,84.50
2023-02-12T02:50:59.952Z,69.00
2023-02-12T02:51:59.939Z,87.70
2023-02-12T02:52:59.903Z,52.50
2023-02-12T02:53:59.911Z,50.60
2023-02-12T02:54:59.879Z,42.30
2023-02-12T02:55:59.904Z,34.30
2023-02-12T02:56:59.875Z,42.10
2023-02-12T02:57:59.866Z,31.00
2023-02-12T02:58:59.852Z,41.50
2023-02-12T02:59:59.844Z,27.70
2023-02-12T03:00:59.897Z,48.70
2023-02-12T03:01:59.863Z,46.70
2023-02-12T03:02:59.839Z,38.40
2023-02-12T03:03:59.796Z,39.30
2023-02-12T03:04:59.796Z,45.80
2023-02-12T03:05:59.776Z,57.40
2023-02-12T03:06:59.770Z,57.50
2023-02-12T03:07:59.739Z,82.90
2023-02-12T03:08:59.720Z,75.20
2023-02-12T03:09:59.737Z,138.20
2023-02-12T03:10:59.702Z,138.10
2023-02-12T03:11:59.703Z,108.40
2023-02-12T03:12:59.676Z,106.40
2023-02-12T03:13:59.692Z,100.30
2023-02-12T03:14:59.657Z,94.70
2023-02-12T03:15:59.708Z,118.40
2023-02-12T03:16:59.681Z,99.00
2023-02-12T03:17:59.640Z,141.90
2023-02-12T03:18:59.609Z,112.60
2023-02-12T03:19:59.625Z,122.40
2023-02-12T03:20:59.595Z,146.40
2023-02-12T03:21:59.613Z,84.30
2023-02-12T03:23:00.470Z,97.90
2023-02-12T03:23:59.576Z,134.80
2023-02-12T03:24:59.557Z,111.90
2023-02-12T03:25:59.541Z,150.70
2023-02-12T03:27:02.443Z,133.60
2023-02-12T03:27:59.539Z,65.50
2023-02-12T03:28:59.519Z,87.30
2023-02-12T03:29:59.532Z,72.50
2023-02-12T03:30:59.576Z,97.90
2023-02-12T03:31:59.631Z,78.90
2023-02-12T03:32:59.465Z,69.40
2023-02-12T03:33:59.475Z,42.50
2023-02-12T03:34:59.434Z,39.30
2023-02-12T03:35:59.440Z,39.00
2023-02-12T03:37:07.083Z,20.70
2023-02-12T03:37:59.418Z,25.30
2023-02-12T03:38:59.432Z,10.20
2023-02-12T03:39:59.412Z,9.80
2023-02-12T03:40:59.426Z,9.20
2023-02-12T03:42:08.366Z,9.10
2023-02-12T03:43:07.045Z,10.30
2023-02-12T03:43:59.353Z,10.80
2023-02-12T03:44:59.327Z,8.50
2023-02-12T03:45:59.691Z,7.10
2023-02-12T03:46:59.334Z,7.40
2023-02-12T03:47:59.307Z,7.00
2023-02-12T03:48:59.283Z,7.20
2023-02-12T03:49:59.284Z,6.10
2023-02-12T03:50:59.256Z,5.10
2023-02-12T03:51:59.278Z,5.60
2023-02-12T03:52:59.266Z,4.50
2023-02-12T03:53:59.230Z,5.20
2023-02-12T03:54:59.232Z,4.20
2023-02-12T03:55:59.205Z,5.20
2023-02-12T03:56:59.210Z,7.40
2023-02-12T03:57:59.183Z,4.30
2023-02-12T03:58:59.175Z,4.40
2023-02-12T03:59:59.200Z,4.30
2023-02-12T04:00:59.166Z,5.40
2023-02-12T04:01:59.260Z,4.60
2023-02-12T04:02:59.151Z,4.90
2023-02-12T04:03:59.165Z,5.40
2023-02-12T04:04:59.133Z,4.50
2023-02-12T04:05:59.134Z,6.20
2023-02-12T04:06:59.156Z,6.00
2023-02-12T04:07:59.069Z,4.60
2023-02-12T04:08:59.048Z,4.70
2023-02-12T04:09:59.049Z,6.70
2023-02-12T04:10:59.054Z,23.80
2023-02-12T04:11:59.052Z,21.30
2023-02-12T04:12:59.008Z,14.80
2023-02-12T04:13:59.003Z,29.20
2023-02-12T04:14:58.990Z,24.50
2023-02-12T04:15:58.984Z,40.30
2023-02-12T04:16:59.074Z,60.00
2023-02-12T04:17:58.973Z,51.10
2023-02-12T04:18:58.942Z,30.30
2023-02-12T04:19:58.938Z,30.90
2023-02-12T04:20:58.942Z,41.30
2023-02-12T04:21:58.913Z,38.40
2023-02-12T04:22:58.900Z,23.20
2023-02-12T04:23:58.888Z,23.10
2023-02-12T04:24:58.873Z,34.90
2023-02-12T04:25:59.144Z,41.40
2023-02-12T04:26:58.879Z,38.00
2023-02-12T04:27:58.902Z,51.60
2023-02-12T04:28:58.859Z,49.10
2023-02-12T04:29:58.828Z,80.10
2023-02-12T04:30:58.939Z,114.90
2023-02-12T04:31:58.809Z,109.50
2023-02-12T04:32:58.808Z,101.30
2023-02-12T04:33:58.785Z,111.00
2023-02-12T04:34:58.781Z,109.00
2023-02-12T04:35:58.761Z,114.40
2023-02-12T04:36:58.745Z,125.00
2023-02-12T04:37:58.757Z,132.80
2023-02-12T04:38:58.727Z,94.00
2023-02-12T04:39:58.720Z,96.20
2023-02-12T04:40:58.728Z,99.50
2023-02-12T04:41:58.713Z,114.30
2023-02-12T04:42:58.724Z,143.10
2023-02-12T04:43:58.678Z,84.20
2023-02-12T04:44:58.668Z,129.90
2023-02-12T04:45:58.954Z,128.60
2023-02-12T04:46:58.652Z,107.70
2023-02-12T04:47:58.656Z,95.60
2023-02-12T04:48:58.731Z,106.80
2023-02-12T04:49:58.617Z,68.10
2023-02-12T04:50:58.618Z,126.90
2023-02-12T04:51:58.595Z,77.10
2023-02-12T04:52:58.601Z,102.80
2023-02-12T04:53:58.608Z,112.60
2023-02-12T04:54:58.553Z,91.70
2023-02-12T04:55:58.682Z,104.10
2023-02-12T04:56:58.525Z,126.90
2023-02-12T04:57:58.552Z,77.70
2023-02-12T04:58:58.543Z,127.10
2023-02-12T04:59:58.500Z,143.10
2023-02-12T05:00:58.555Z,68.20
2023-02-12T05:01:58.504Z,159.50
2023-02-12T05:02:58.457Z,115.10
2023-02-12T05:03:59.377Z,98.80
2023-02-12T05:04:58.487Z,90.10
2023-02-12T05:05:58.429Z,135.00
2023-02-12T05:06:58.433Z,94.50
2023-02-12T05:07:58.442Z,105.00
2023-02-12T05:08:58.399Z,121.60
2023-02-12T05:09:58.387Z,83.30
2023-02-12T05:10:58.401Z,85.80
2023-02-12T05:11:58.366Z,116.20
2023-02-12T05:12:58.346Z,64.30
2023-02-12T05:13:58.345Z,65.30
2023-02-12T05:14:58.370Z,72.20
2023-02-12T05:15:58.664Z,104.50
2023-02-12T05:16:58.305Z,87.80
2023-02-12T05:17:58.303Z,113.90
2023-02-12T05:18:58.281Z,86.60
2023-02-12T05:19:58.280Z,73.70
2023-02-12T05:20:58.274Z,94.30
2023-02-12T05:21:58.288Z,75.00
2023-02-12T05:22:58.240Z,58.90
2023-02-12T05:23:58.237Z,67.80
2023-02-12T05:24:58.230Z,74.90
2023-02-12T05:25:58.211Z,75.30
2023-02-12T05:26:58.215Z,67.90
2023-02-12T05:27:58.245Z,89.10
2023-02-12T05:28:58.171Z,56.50
2023-02-12T05:29:58.166Z,65.60
2023-02-12T05:30:58.226Z,43.30
2023-02-12T05:31:58.381Z,70.00
2023-02-12T05:32:58.127Z,44.60
2023-02-12T05:33:58.168Z,58.50
2023-02-12T05:34:58.121Z,64.60
2023-02-12T05:35:58.098Z,80.60
2023-02-12T05:36:58.081Z,88.60
2023-02-12T05:37:58.078Z,52.10
2023-02-12T05:38:58.086Z,73.00
2023-02-12T05:39:58.071Z,76.90
2023-02-12T05:40:58.038Z,53.00
2023-02-12T05:41:58.047Z,41.40
2023-02-12T05:42:58.040Z,48.80
2023-02-12T05:43:58.014Z,56.60
2023-02-12T05:44:57.990Z,49.30
2023-02-12T05:45:58.283Z,42.50
2023-02-12T05:46:57.992Z,49.10
2023-02-12T05:47:57.962Z,43.30
2023-02-12T05:48:57.970Z,67.50
2023-02-12T05:49:57.943Z,59.60
2023-02-12T05:50:57.921Z,30.40
2023-02-12T05:51:57.936Z,43.90
2023-02-12T05:52:57.913Z,43.30
2023-02-12T05:53:57.917Z,38.00
2023-02-12T05:54:57.897Z,44.20
2023-02-12T05:55:57.884Z,36.80
2023-02-12T05:56:57.857Z,28.50
2023-02-12T05:57:57.863Z,67.20
2023-02-12T05:58:57.831Z,62.00
2023-02-12T05:59:57.847Z,49.70
2023-02-12T06:00:57.813Z,46.10
2023-02-12T06:01:57.808Z,33.60
2023-02-12T06:02:57.917Z,45.50
2023-02-12T06:03:57.825Z,45.30
2023-02-12T06:04:57.788Z,68.10
2023-02-12T06:05:58.094Z,59.50
2023-02-12T06:06:57.742Z,80.00
2023-02-12T06:07:57.741Z,37.90
2023-02-12T06:08:57.731Z,52.40
2023-02-12T06:09:57.772Z,89.10
2023-02-12T06:10:57.698Z,68.90
2023-02-12T06:11:57.701Z,46.40
2023-02-12T06:12:57.700Z,43.00
2023-02-12T06:13:57.667Z,55.50
2023-02-12T06:14:57.675Z,59.40
2023-02-12T06:15:58.190Z,82.60
2023-02-12T06:16:57.632Z,117.80
2023-02-12T06:17:57.629Z,60.50
2023-02-12T06:18:57.657Z,44.10
2023-02-12T06:19:57.653Z,50.80
2023-02-12T06:20:57.590Z,38.20
2023-02-12T06:21:57.589Z,24.20
2023-02-12T06:22:57.564Z,47.70
2023-02-12T06:23:57.565Z,32.40
2023-02-12T06:24:57.562Z,47.70
2023-02-12T06:25:57.974Z,33.80
2023-02-12T06:26:57.512Z,36.70
2023-02-12T06:27:57.614Z,30.30
2023-02-12T06:28:57.494Z,27.70
2023-02-12T06:29:57.518Z,17.40
2023-02-12T06:30:57.582Z,25.70
2023-02-12T06:31:57.612Z,43.40
2023-02-12T06:32:57.453Z,46.30
2023-02-12T06:33:57.478Z,70.20
2023-02-12T06:34:57.457Z,36.30
2023-02-12T06:35:57.757Z,49.20
2023-02-12T06:36:57.425Z,51.60
2023-02-12T06:37:57.406Z,22.90
2023-02-12T06:38:57.405Z,68.40
2023-02-12T06:39:57.397Z,47.00
2023-02-12T06:40:57.527Z,17.40
2023-02-12T06:41:57.390Z,63.90
2023-02-12T06:42:57.346Z,26.70
2023-02-12T06:43:57.332Z,20.40
2023-02-12T06:44:59.872Z,48.50
2023-02-12T06:45:57.617Z,43.00
2023-02-12T06:46:57.475Z,23.30
2023-02-12T06:47:57.295Z,34.00
2023-02-12T06:48:57.281Z,34.60
2023-02-12T06:49:57.264Z,32.80
2023-02-12T06:50:57.309Z,43.00
2023-02-12T06:51:57.252Z,31.80
2023-02-12T06:52:57.237Z,19.70
2023-02-12T06:53:57.238Z,17.60
2023-02-12T06:54:57.216Z,21.80
2023-02-12T06:55:57.501Z,12.60
2023-02-12T06:56:57.213Z,12.10
2023-02-12T06:57:57.186Z,19.60
2023-02-12T06:58:57.169Z,9.90
2023-02-12T06:59:57.179Z,10.90
2023-02-12T07:00:57.366Z,7.50
2023-02-12T07:01:57.132Z,8.90
2023-02-12T07:02:57.123Z,6.30
2023-02-12T07:03:57.215Z,9.00
2023-02-12T07:04:57.103Z,6.60
2023-02-12T07:05:57.493Z,8.00
2023-02-12T07:06:57.123Z,6.00
2023-02-12T07:07:57.080Z,6.40
2023-02-12T07:08:57.057Z,7.40
2023-02-12T07:09:57.079Z,7.10
2023-02-12T07:10:57.033Z,7.80
2023-02-12T07:11:57.044Z,6.20
2023-02-12T07:12:57.018Z,7.50
2023-02-12T07:13:56.998Z,9.50
2023-02-12T07:14:56.986Z,7.30
2023-02-12T07:15:57.323Z,12.90
2023-02-12T07:16:57.537Z,16.20
2023-02-12T07:17:56.988Z,14.20
2023-02-12T07:18:56.953Z,9.80
2023-02-12T07:19:56.926Z,14.70
2023-02-12T07:20:56.927Z,11.40
2023-02-12T07:21:56.911Z,16.90
2023-02-12T07:22:56.935Z,14.80
2023-02-12T07:23:56.926Z,14.10
2023-02-12T07:24:56.874Z,10.60
2023-02-12T07:25:57.269Z,10.60
2023-02-12T07:26:56.884Z,17.30
2023-02-12T07:27:56.853Z,13.70
2023-02-12T07:28:56.853Z,12.60
2023-02-12T07:29:56.816Z,10.80
2023-02-12T07:30:56.883Z,11.90
2023-02-12T07:31:56.879Z,8.80
2023-02-12T07:32:56.806Z,9.60
2023-02-12T07:33:56.806Z,8.60
2023-02-12T07:34:56.765Z,11.40
2023-02-12T07:35:57.176Z,13.00
2023-02-12T07:36:56.740Z,13.30
2023-02-12T07:37:56.726Z,14.00
2023-02-12T07:38:56.780Z,13.40
2023-02-12T07:39:56.712Z,28.50
2023-02-12T07:40:56.720Z,47.90
2023-02-12T07:41:56.719Z,17.40
2023-02-12T07:42:56.681Z,23.80
2023-02-12T07:43:56.667Z,21.10
2023-02-12T07:44:56.683Z,37.10
2023-02-12T07:45:57.040Z,45.40
2023-02-12T07:46:56.697Z,23.70
2023-02-12T07:47:56.611Z,52.50
2023-02-12T07:48:56.630Z,55.80
2023-02-12T07:49:56.589Z,33.00
2023-02-12T07:50:56.594Z,36.90
2023-02-12T07:51:56.584Z,24.80
2023-02-12T07:52:56.564Z,12.60
2023-02-12T07:53:56.569Z,10.20
2023-02-12T07:54:56.575Z,10.50
2023-02-12T07:55:56.983Z,26.60
2023-02-12T07:56:56.523Z,137.60
2023-02-12T07:57:56.522Z,62.20
2023-02-12T07:58:56.527Z,5.50
2023-02-12T07:59:56.483Z,9.10
2023-02-12T08:00:56.475Z,9.90
2023-02-12T08:01:56.592Z,5.80
2023-02-12T08:02:56.455Z,5.40
2023-02-12T08:03:56.485Z,9.60
2023-02-12T08:04:57.001Z,10.10
2023-02-12T08:05:56.898Z,7.00
2023-02-12T08:06:56.432Z,7.50
2023-02-12T08:07:56.398Z,10.40
2023-02-12T08:08:56.397Z,5.80
2023-02-12T08:09:56.446Z,5.00
2023-02-12T08:10:56.397Z,6.10
2023-02-12T08:11:56.352Z,6.30
2023-02-12T08:12:56.346Z,8.70
2023-02-12T08:13:56.347Z,8.00
2023-02-12T08:14:56.334Z,6.30
2023-02-12T08:15:56.710Z,6.90
2023-02-12T08:16:56.377Z,6.40
2023-02-12T08:17:56.297Z,8.50
2023-02-12T08:19:02.385Z,8.00
2023-02-12T08:19:57.367Z,7.50
2023-02-12T08:20:56.255Z,10.40
2023-02-12T08:21:59.009Z,10.00
2023-02-12T08:22:56.243Z,13.40
2023-02-12T08:23:56.216Z,23.90
2023-02-12T08:24:56.220Z,19.70
2023-02-12T08:25:56.525Z,70.80
2023-02-12T08:26:56.376Z,70.90
2023-02-12T08:27:56.230Z,87.80
2023-02-12T08:28:56.323Z,56.70
2023-02-12T08:29:56.227Z,86.30
2023-02-12T08:30:56.308Z,87.50
2023-02-12T08:31:56.187Z,55.00
2023-02-12T08:32:56.122Z,90.70
2023-02-12T08:33:56.123Z,67.30
2023-02-12T08:34:56.114Z,86.80
2023-02-12T08:35:59.371Z,76.10
2023-02-12T08:36:56.075Z,89.50
2023-02-12T08:37:56.081Z,85.60
2023-02-12T08:38:56.081Z,61.00
2023-02-12T08:39:56.061Z,37.30
2023-02-12T08:40:56.050Z,74.10
2023-02-12T08:41:56.019Z,53.20
2023-02-12T08:42:56.039Z,59.40
2023-02-12T08:43:56.017Z,62.50
2023-02-12T08:44:56.000Z,66.20
2023-02-12T08:45:56.401Z,36.10
2023-02-12T08:46:55.962Z,32.00
2023-02-12T08:47:55.946Z,26.90
2023-02-12T08:48:55.960Z,46.30
2023-02-12T08:49:55.950Z,29.50
2023-02-12T08:50:55.929Z,55.00
2023-02-12T08:51:55.943Z,35.40
2023-02-12T08:52:55.917Z,42.60
2023-02-12T08:53:55.880Z,59.10
2023-02-12T08:54:55.873Z,59.70
2023-02-12T08:55:56.162Z,42.70
2023-02-12T08:56:55.872Z,41.80
2023-02-12T08:57:55.842Z,45.30
2023-02-12T08:58:55.875Z,65.70
2023-02-12T08:59:55.806Z,51.10
2023-02-12T09:00:55.835Z,106.70
2023-02-12T09:01:55.809Z,32.50
2023-02-12T09:02:55.827Z,51.20
2023-02-12T09:03:55.762Z,69.70
2023-02-12T09:04:55.756Z,66.60
2023-02-12T09:05:56.244Z,60.00
2023-02-12T09:06:55.765Z,85.70
2023-02-12T09:07:55.726Z,65.00
2023-02-12T09:08:55.759Z,70.20
2023-02-12T09:09:55.694Z,43.10
2023-02-12T09:10:55.698Z,29.50
2023-02-12T09:11:55.695Z,27.90
2023-02-12T09:12:55.672Z,49.50
2023-02-12T09:13:55.648Z,63.40
2023-02-12T09:14:55.667Z,24.80
2023-02-12T09:15:56.010Z,38.40
2023-02-12T09:16:55.700Z,40.00
2023-02-12T09:17:55.609Z,33.10
2023-02-12T09:18:55.617Z,31.90
2023-02-12T09:19:55.602Z,179.60
2023-02-12T09:20:55.576Z,143.60
2023-02-12T09:21:56.479Z,59.10
2023-02-12T09:22:55.578Z,52.90
2023-02-12T09:23:55.540Z,76.40
2023-02-12T09:24:55.547Z,50.30
2023-02-12T09:25:55.803Z,55.90
2023-02-12T09:26:55.539Z,47.40
2023-02-12T09:27:55.513Z,52.10
2023-02-12T09:28:55.517Z,45.30
2023-02-12T09:29:55.471Z,45.80
2023-02-12T09:30:55.638Z,33.20
2023-02-12T09:31:55.618Z,31.60
2023-02-12T09:32:55.456Z,47.90
2023-02-12T09:33:55.535Z,70.70
2023-02-12T09:34:55.440Z,47.50
2023-02-12T09:35:55.739Z,28.10
2023-02-12T09:36:55.400Z,32.20
2023-02-12T09:37:55.377Z,38.70
2023-02-12T09:38:55.397Z,24.60
2023-02-12T09:39:55.364Z,39.70
2023-02-12T09:40:55.363Z,46.40
2023-02-12T09:41:55.378Z,26.40
2023-02-12T09:42:55.359Z,14.80
2023-02-12T09:43:55.326Z,23.90
2023-02-12T09:44:55.337Z,27.20
2023-02-12T09:45:55.777Z,22.10
2023-02-12T09:46:55.328Z,25.40
2023-02-12T09:47:55.334Z,30.60
2023-02-12T09:48:57.312Z,37.90
2023-02-12T09:49:55.295Z,32.50
2023-02-12T09:50:55.244Z,25.70
2023-02-12T09:51:55.241Z,12.90
2023-02-12T09:52:55.288Z,46.30
2023-02-12T09:53:55.237Z,21.60
2023-02-12T09:54:56.489Z,24.50
2023-02-12T09:55:55.498Z,21.50
2023-02-12T09:56:55.195Z,20.20
2023-02-12T09:57:55.152Z,16.80
2023-02-12T09:58:55.174Z,16.00
2023-02-12T09:59:55.160Z,21.40
2023-02-12T10:00:55.130Z,13.80
2023-02-12T10:01:55.112Z,29.80
2023-02-12T10:02:55.152Z,9.80
2023-02-12T10:03:55.417Z,11.90
2023-02-12T10:05:01.496Z,22.50
2023-02-12T10:05:56.369Z,24.90
2023-02-12T10:06:55.067Z,12.10
2023-02-12T10:07:55.089Z,11.70
2023-02-12T10:08:55.041Z,9.80
2023-02-12T10:09:55.041Z,10.00
2023-02-12T10:10:55.040Z,11.50
2023-02-12T10:11:55.022Z,17.40
2023-02-12T10:12:54.996Z,10.20
2023-02-12T10:13:55.000Z,8.40
2023-02-12T10:14:54.967Z,9.10
2023-02-12T10:15:55.511Z,10.40
2023-02-12T10:16:54.951Z,7.70
2023-02-12T10:17:54.961Z,9.90
2023-02-12T10:18:54.984Z,8.50
2023-02-12T10:19:54.913Z,5.50
2023-02-12T10:20:55.251Z,9.60
2023-02-12T10:21:54.905Z,5.60
2023-02-12T10:22:57.108Z,10.50
2023-02-12T10:23:54.886Z,6.50
2023-02-12T10:24:54.884Z,3.70
2023-02-12T10:25:54.871Z,6.90
2023-02-12T10:26:54.832Z,6.60
2023-02-12T10:27:54.863Z,4.10
2023-02-12T10:28:54.815Z,8.80
2023-02-12T10:29:54.793Z,5.30
2023-02-12T10:30:54.901Z,5.20
2023-02-12T10:31:54.975Z,5.30
2023-02-12T10:32:54.785Z,8.00
2023-02-12T10:33:54.768Z,5.70
2023-02-12T10:34:54.761Z,8.50
2023-02-12T10:35:55.062Z,3.60
2023-02-12T10:36:54.734Z,2.80
2023-02-12T10:37:54.706Z,2.40
2023-02-12T10:38:54.737Z,3.20
2023-02-12T10:39:54.706Z,3.40
2023-02-12T10:40:54.678Z,2.90
2023-02-12T10:41:54.653Z,3.10
2023-02-12T10:42:54.655Z,2.30
2023-02-12T10:43:54.641Z,3.50
2023-02-12T10:44:54.649Z,2.30
2023-02-12T10:45:54.946Z,3.70
2023-02-12T10:46:54.610Z,4.60
2023-02-12T10:47:54.601Z,3.00
2023-02-12T10:48:54.576Z,3.30
2023-02-12T10:49:54.579Z,3.80
2023-02-12T10:50:54.598Z,2.10
2023-02-12T10:51:54.554Z,3.10
2023-02-12T10:52:54.550Z,2.40
2023-02-12T10:54:02.935Z,2.20
2023-02-12T10:54:54.687Z,3.90
2023-02-12T10:55:54.970Z,1.90
2023-02-12T10:56:54.734Z,5.00
2023-02-12T10:58:04.655Z,3.20
2023-02-12T10:58:54.657Z,3.60
2023-02-12T10:59:54.617Z,5.20
2023-02-12T11:00:54.486Z,3.30
2023-02-12T11:01:54.609Z,3.00
2023-02-12T11:02:54.448Z,5.00
2023-02-12T11:03:54.432Z,2.90
2023-02-12T11:04:54.594Z,3.50
2023-02-12T11:05:54.887Z,3.50
2023-02-12T11:06:54.388Z,2.90
2023-02-12T11:07:54.387Z,11.80
2023-02-12T11:08:54.372Z,16.20
2023-02-12T11:09:54.336Z,14.00
2023-02-12T11:10:54.322Z,10.80
2023-02-12T11:11:54.344Z,17.70
2023-02-12T11:12:54.319Z,11.30
2023-02-12T11:13:54.311Z,4.80
2023-02-12T11:14:54.276Z,6.10
2023-02-12T11:15:54.320Z,6.00
2023-02-12T11:16:54.270Z,4.80
2023-02-12T11:17:54.263Z,5.50
2023-02-12T11:18:54.263Z,3.00
2023-02-12T11:19:54.250Z,4.10
2023-02-12T11:20:54.209Z,4.90
2023-02-12T11:21:54.219Z,6.20
2023-02-12T11:22:54.205Z,4.00
2023-02-12T11:23:54.208Z,3.40
2023-02-12T11:24:54.187Z,5.20
2023-02-12T11:25:54.674Z,6.70
2023-02-12T11:26:54.135Z,3.50
2023-02-12T11:27:55.431Z,1.90
2023-02-12T11:28:54.236Z,3.60
2023-02-12T11:29:54.142Z,5.00
2023-02-12T11:30:54.169Z,2.60
2023-02-12T11:31:54.145Z,2.60
2023-02-12T11:32:54.074Z,3.00
2023-02-12T11:33:54.064Z,3.20
2023-02-12T11:34:54.060Z,2.70
2023-02-12T11:35:54.067Z,5.10
2023-02-12T11:36:54.038Z,3.40
2023-02-12T11:37:54.022Z,5.60
2023-02-12T11:38:54.040Z,4.20
2023-02-12T11:39:54.006Z,4.70
2023-02-12T11:40:53.977Z,6.60
2023-02-12T11:41:54.000Z,7.00
2023-02-12T11:42:53.977Z,6.10
2023-02-12T11:43:53.962Z,8.20
2023-02-12T11:44:53.936Z,6.20
2023-02-12T11:45:53.931Z,6.00
2023-02-12T11:46:53.964Z,7.00
2023-02-12T11:47:53.925Z,4.80
2023-02-12T11:49:02.671Z,8.10
2023-02-12T11:49:53.920Z,7.80
2023-02-12T11:50:53.894Z,5.50
2023-02-12T11:51:53.907Z,6.20
2023-02-12T11:52:53.846Z,4.10
2023-02-12T11:53:53.882Z,8.70
2023-02-12T11:54:53.857Z,22.40
2023-02-12T11:55:53.845Z,14.70
2023-02-12T11:56:53.820Z,17.00
2023-02-12T11:57:53.800Z,11.80
2023-02-12T11:58:53.798Z,15.90
2023-02-12T11:59:53.799Z,10.50
2023-02-12T12:00:53.772Z,5.10
2023-02-12T12:01:53.768Z,5.30
2023-02-12T12:02:53.769Z,6.90
2023-02-12T12:03:53.749Z,6.00
2023-02-12T12:04:53.736Z,6.00
2023-02-12T12:05:54.022Z,9.50
2023-02-12T12:06:53.714Z,5.80
2023-02-12T12:07:53.694Z,4.30
2023-02-12T12:08:53.678Z,6.70
2023-02-12T12:09:53.694Z,4.60
2023-02-12T12:10:53.697Z,9.70
2023-02-12T12:11:53.648Z,8.70
2023-02-12T12:12:53.634Z,9.90
2023-02-12T12:13:53.612Z,6.20
2023-02-12T12:14:53.619Z,11.80
2023-02-12T12:15:53.866Z,12.40
2023-02-12T12:16:53.589Z,8.60
2023-02-12T12:17:53.644Z,12.40
2023-02-12T12:18:53.557Z,11.70
2023-02-12T12:19:53.580Z,10.00
2023-02-12T12:20:53.636Z,19.70
2023-02-12T12:21:53.578Z,23.20
2023-02-12T12:22:53.518Z,14.60
2023-02-12T12:23:53.501Z,15.80
2023-02-12T12:24:53.568Z,11.00
2023-02-12T12:25:53.639Z,7.90
2023-02-12T12:26:53.480Z,15.60
2023-02-12T12:27:53.474Z,10.50
2023-02-12T12:28:53.437Z,10.50
2023-02-12T12:29:53.450Z,16.80
2023-02-12T12:30:53.487Z,14.70
2023-02-12T12:31:53.484Z,12.90
2023-02-12T12:32:53.391Z,9.20
2023-02-12T12:33:53.391Z,11.90
2023-02-12T12:34:53.370Z,3.50
2023-02-12T12:35:53.500Z,9.60
2023-02-12T12:36:53.397Z,5.90
2023-02-12T12:37:53.347Z,7.20
2023-02-12T12:38:53.361Z,9.80
2023-02-12T12:39:53.345Z,3.30
2023-02-12T12:40:53.318Z,9.80
2023-02-12T12:41:53.293Z,4.50
2023-02-12T12:42:53.315Z,7.70
2023-02-12T12:43:53.270Z,8.40
2023-02-12T12:44:53.297Z,6.90
2023-02-12T12:45:53.318Z,6.00
2023-02-12T12:46:53.231Z,6.30
2023-02-12T12:47:53.244Z,4.90
2023-02-12T12:48:53.208Z,6.50
2023-02-12T12:49:53.233Z,3.90
2023-02-12T12:50:53.260Z,6.20
2023-02-12T12:51:53.207Z,4.10
2023-02-12T12:52:53.180Z,6.90
2023-02-12T12:53:53.170Z,7.50
2023-02-12T12:54:53.141Z,10.20
2023-02-12T12:55:53.137Z,7.90
2023-02-12T12:56:53.148Z,27.10
2023-02-12T12:57:53.144Z,9.80